createdAt,value
2023-01-31T00:02:03.436Z,4.90
2023-01-31T00:04:30.499Z,5.28
2023-01-31T00:06:57.596Z,5.40
2023-01-31T00:09:24.669Z,4.75
2023-01-31T00:11:53.783Z,4.82
2023-01-31T00:14:21.218Z,5.80
2023-01-31T00:16:48.461Z,3.20
2023-01-31T00:19:15.530Z,7.03
2023-01-31T00:21:43.967Z,4.53
2023-01-31T00:24:13.919Z,6.30
2023-01-31T00:26:43.888Z,5.30
2023-01-31T00:29:11.112Z,3.80
2023-01-31T00:31:39.113Z,3.20
2023-01-31T00:34:07.090Z,8.57
2023-01-31T00:36:34.980Z,7.60
2023-01-31T00:39:04.396Z,3.85
2023-01-31T00:41:32.737Z,6.97
2023-01-31T00:44:02.559Z,5.10
2023-01-31T00:46:29.978Z,6.85
2023-01-31T00:48:57.301Z,7.20
2023-01-31T00:51:26.787Z,7.80
2023-01-31T00:53:54.586Z,4.78
2023-01-31T00:56:23.687Z,4.60
2023-01-31T00:58:51.872Z,2.22
2023-01-31T01:01:26.313Z,4.25
2023-01-31T01:04:01.232Z,6.00
2023-01-31T01:06:29.539Z,5.25
2023-01-31T01:08:59.866Z,4.93
2023-01-31T01:11:29.692Z,5.95
2023-01-31T01:13:57.641Z,6.05
2023-01-31T01:16:29.913Z,5.07
2023-01-31T01:18:56.983Z,4.75
2023-01-31T01:21:29.971Z,4.88
2023-01-31T01:24:01.783Z,5.55
2023-01-31T01:26:32.078Z,4.95
2023-01-31T01:29:00.668Z,5.55
2023-01-31T01:31:30.630Z,6.68
2023-01-31T01:34:12.069Z,7.22
2023-01-31T01:36:39.890Z,6.55
2023-01-31T01:39:09.884Z,5.75
2023-01-31T01:41:38.358Z,7.22
2023-01-31T01:44:43.554Z,5.20
2023-01-31T01:47:15.676Z,7.07
2023-01-31T01:49:43.224Z,7.95
2023-01-31T01:52:12.169Z,6.30
2023-01-31T01:55:09.175Z,5.70
2023-01-31T01:57:47.866Z,7.55
2023-01-31T02:00:24.622Z,5.60
2023-01-31T02:02:55.345Z,7.85
2023-01-31T02:05:36.831Z,7.20
2023-01-31T02:08:04.411Z,4.57
2023-01-31T02:10:56.724Z,6.18
2023-01-31T02:13:27.204Z,6.05
2023-01-31T02:15:55.332Z,6.95
2023-01-31T02:18:24.570Z,7.55
2023-01-31T02:20:54.731Z,7.55
2023-01-31T02:23:59.171Z,8.15
2023-01-31T02:26:26.175Z,6.70
2023-01-31T02:29:14.396Z,8.50
2023-01-31T02:32:00.149Z,8.77
2023-01-31T02:34:58.963Z,7.22
2023-01-31T02:37:54.332Z,7.80
2023-01-31T02:40:39.321Z,6.70
2023-01-31T02:43:19.603Z,5.55
2023-01-31T02:46:17.099Z,6.70
2023-01-31T02:48:53.420Z,5.38
2023-01-31T02:51:31.367Z,7.25
2023-01-31T02:54:23.660Z,6.57
2023-01-31T02:56:52.604Z,6.60
2023-01-31T02:59:27.025Z,5.32
2023-01-31T03:02:02.165Z,8.05
2023-01-31T03:04:36.831Z,7.00
2023-01-31T03:07:28.262Z,5.45
2023-01-31T03:10:13.736Z,8.07
2023-01-31T03:12:48.924Z,6.70
2023-01-31T03:16:01.498Z,6.32
2023-01-31T03:18:55.365Z,4.50
2023-01-31T03:21:37.318Z,7.38
2023-01-31T03:24:06.434Z,10.48
2023-01-31T03:26:35.059Z,9.07
2023-01-31T03:29:05.237Z,8.07
2023-01-31T03:32:03.463Z,6.68
2023-01-31T03:34:31.058Z,8.90
2023-01-31T03:37:19.201Z,5.80
2023-01-31T03:39:59.224Z,6.03
2023-01-31T03:42:48.848Z,7.53
2023-01-31T03:45:39.116Z,8.52
2023-01-31T03:48:14.488Z,7.80
2023-01-31T03:50:49.611Z,5.63
2023-01-31T03:53:36.544Z,8.00
2023-01-31T03:56:28.696Z,4.50
2023-01-31T03:59:03.813Z,6.80
2023-01-31T04:01:35.162Z,7.53
2023-01-31T04:04:08.679Z,7.53
2023-01-31T04:06:35.826Z,8.18
2023-01-31T04:09:05.467Z,7.55
2023-01-31T04:11:40.672Z,5.70
2023-01-31T04:14:08.996Z,7.15
2023-01-31T04:16:36.743Z,6.47
2023-01-31T04:19:04.035Z,6.55
2023-01-31T04:21:31.179Z,8.00
2023-01-31T04:23:58.309Z,8.43
2023-01-31T04:26:25.819Z,10.70
2023-01-31T04:28:52.943Z,4.78
2023-01-31T04:31:20.087Z,7.85
2023-01-31T04:33:47.386Z,9.38
2023-01-31T04:36:14.492Z,7.68
2023-01-31T04:38:41.604Z,7.13
2023-01-31T04:41:08.650Z,8.77
2023-01-31T04:43:36.788Z,8.05
2023-01-31T04:46:03.938Z,9.48
2023-01-31T04:48:31.786Z,5.20
2023-01-31T04:50:58.870Z,8.07
2023-01-31T04:53:26.148Z,8.05
2023-01-31T04:55:56.517Z,10.57
2023-01-31T04:58:26.299Z,9.98
2023-01-31T05:00:56.895Z,8.23
2023-01-31T05:03:24.242Z,6.80
2023-01-31T05:05:53.544Z,8.70
2023-01-31T05:08:20.636Z,9.40
2023-01-31T05:10:48.687Z,7.53
2023-01-31T05:13:15.809Z,10.55
2023-01-31T05:15:42.890Z,9.77
2023-01-31T05:18:11.694Z,12.35
2023-01-31T05:20:41.019Z,7.47
2023-01-31T05:23:08.671Z,6.82
2023-01-31T05:25:39.815Z,7.82
2023-01-31T05:28:06.935Z,8.07
2023-01-31T05:30:34.282Z,8.18
2023-01-31T05:33:03.811Z,9.23
2023-01-31T05:35:31.271Z,9.30
2023-01-31T05:38:06.322Z,7.45
2023-01-31T05:40:33.729Z,8.75
2023-01-31T05:43:01.824Z,5.90
2023-01-31T05:45:30.120Z,5.70
2023-01-31T05:47:59.174Z,8.45
2023-01-31T05:50:26.449Z,10.35
2023-01-31T05:52:55.888Z,8.48
2023-01-31T05:55:23.316Z,8.82
2023-01-31T05:57:50.627Z,7.50
2023-01-31T06:00:18.014Z,9.98
2023-01-31T06:02:45.115Z,8.27
2023-01-31T06:05:14.669Z,9.23
2023-01-31T06:07:44.577Z,8.02
2023-01-31T06:10:13.883Z,8.30
2023-01-31T06:12:42.960Z,8.52
2023-01-31T06:15:10.415Z,9.32
2023-01-31T06:17:37.459Z,11.02
2023-01-31T06:20:05.453Z,9.52
2023-01-31T06:22:32.923Z,8.70
2023-01-31T06:25:00.106Z,6.53
2023-01-31T06:27:27.090Z,8.75
2023-01-31T06:29:54.145Z,10.07
2023-01-31T06:32:21.319Z,6.55
2023-01-31T06:34:48.363Z,10.80
2023-01-31T06:37:15.430Z,4.85
2023-01-31T06:39:42.504Z,9.00
2023-01-31T06:42:09.552Z,11.52
2023-01-31T06:44:45.148Z,10.77
2023-01-31T06:47:13.169Z,6.53
2023-01-31T06:49:40.269Z,7.93
2023-01-31T06:52:07.345Z,9.45
2023-01-31T06:54:34.643Z,6.78
2023-01-31T06:57:03.837Z,12.43
2023-01-31T06:59:33.751Z,9.82
2023-01-31T07:02:01.026Z,8.27
2023-01-31T07:04:30.755Z,11.80
2023-01-31T07:06:58.584Z,13.52
2023-01-31T07:09:25.755Z,8.02
2023-01-31T07:11:53.444Z,7.80
2023-01-31T07:14:20.892Z,11.23
2023-01-31T07:16:48.178Z,6.35
2023-01-31T07:19:15.420Z,10.95
2023-01-31T07:21:42.507Z,10.00
2023-01-31T07:24:09.808Z,8.95
2023-01-31T07:26:38.123Z,8.18
2023-01-31T07:29:07.552Z,10.13
2023-01-31T07:31:34.891Z,12.73
2023-01-31T07:34:02.768Z,10.27
2023-01-31T07:36:30.004Z,8.93
2023-01-31T07:38:58.291Z,10.38
2023-01-31T07:41:25.981Z,9.73
2023-01-31T07:43:55.251Z,14.90
2023-01-31T07:46:22.412Z,11.52
2023-01-31T07:48:51.046Z,10.13
2023-01-31T07:51:18.084Z,10.25
2023-01-31T07:53:45.261Z,10.90
2023-01-31T07:56:15.457Z,10.13
2023-01-31T07:58:43.892Z,10.98
2023-01-31T08:01:34.070Z,7.55
2023-01-31T08:04:18.393Z,10.82
2023-01-31T08:06:47.627Z,8.20
2023-01-31T08:09:17.951Z,12.15
2023-01-31T08:11:44.979Z,5.60
2023-01-31T08:14:12.113Z,13.13
2023-01-31T08:16:39.920Z,12.55
2023-01-31T08:19:11.973Z,10.73
2023-01-31T08:21:39.115Z,9.88
2023-01-31T08:24:06.524Z,10.32
2023-01-31T08:26:33.590Z,12.18
2023-01-31T08:29:03.292Z,9.73
2023-01-31T08:31:30.576Z,9.88
2023-01-31T08:33:57.910Z,10.07
2023-01-31T08:36:31.911Z,10.25
2023-01-31T08:39:00.068Z,8.15
2023-01-31T08:41:30.521Z,8.40
2023-01-31T08:43:58.932Z,10.02
2023-01-31T08:46:29.740Z,10.43
2023-01-31T08:48:57.590Z,9.27
2023-01-31T08:51:27.103Z,8.73
2023-01-31T08:53:54.386Z,10.93
2023-01-31T08:56:28.154Z,5.88
2023-01-31T08:58:55.893Z,7.65
2023-01-31T09:01:24.891Z,12.85
2023-01-31T09:03:56.972Z,9.30
2023-01-31T09:06:27.148Z,10.98
2023-01-31T09:08:58.688Z,10.23
2023-01-31T09:11:28.937Z,9.73
2023-01-31T09:13:57.272Z,10.55
2023-01-31T09:16:24.398Z,8.60
2023-01-31T09:18:51.857Z,9.07
2023-01-31T09:21:21.037Z,8.63
2023-01-31T09:23:49.211Z,9.57
2023-01-31T09:26:17.071Z,9.70
2023-01-31T09:28:45.525Z,12.00
2023-01-31T09:31:15.531Z,10.45
2023-01-31T09:33:43.308Z,10.70
2023-01-31T09:36:13.211Z,10.45
2023-01-31T09:38:41.209Z,12.77
2023-01-31T09:41:23.918Z,10.35
2023-01-31T09:44:04.796Z,12.40
2023-01-31T09:46:47.671Z,9.48
2023-01-31T09:49:27.478Z,10.90
2023-01-31T09:52:02.148Z,7.85
2023-01-31T09:54:36.623Z,13.15
2023-01-31T09:57:33.886Z,10.80
2023-01-31T10:00:29.160Z,11.52
2023-01-31T10:03:24.121Z,10.75
2023-01-31T10:06:21.450Z,11.95
2023-01-31T10:08:57.573Z,11.40
2023-01-31T10:11:43.241Z,8.35
2023-01-31T10:14:10.323Z,6.55
2023-01-31T10:16:45.995Z,10.60
2023-01-31T10:19:19.843Z,8.38
2023-01-31T10:21:51.786Z,10.15
2023-01-31T10:24:25.170Z,11.35
2023-01-31T10:26:58.413Z,8.52
2023-01-31T10:29:34.324Z,9.70
2023-01-31T10:32:14.618Z,9.38
2023-01-31T10:35:01.008Z,9.43
2023-01-31T10:37:37.438Z,10.32
2023-01-31T10:40:14.162Z,12.18
2023-01-31T10:42:46.146Z,11.65
2023-01-31T10:45:24.110Z,9.40
2023-01-31T10:47:54.105Z,10.95
2023-01-31T10:50:39.327Z,13.07
2023-01-31T10:53:49.886Z,15.07
2023-01-31T10:56:21.218Z,13.57
2023-01-31T10:58:48.524Z,9.63
2023-01-31T11:01:16.020Z,10.63
2023-01-31T11:03:54.003Z,9.70
2023-01-31T11:06:22.388Z,9.10
2023-01-31T11:08:53.568Z,11.45
2023-01-31T11:11:23.703Z,9.15
2023-01-31T11:14:04.067Z,9.48
2023-01-31T11:16:35.729Z,9.48
2023-01-31T11:19:13.393Z,11.32
2023-01-31T11:21:40.743Z,12.98
2023-01-31T11:24:30.979Z,10.57
2023-01-31T11:27:12.529Z,11.27
2023-01-31T11:29:46.033Z,10.35
2023-01-31T11:32:22.787Z,11.88
2023-01-31T11:35:00.288Z,8.40
2023-01-31T11:37:30.404Z,11.70
2023-01-31T11:40:19.875Z,10.27
2023-01-31T11:43:01.311Z,8.80
2023-01-31T11:45:37.871Z,11.90
2023-01-31T11:48:20.178Z,10.95
2023-01-31T11:50:52.210Z,9.87
2023-01-31T11:53:24.046Z,9.47
2023-01-31T11:55:54.615Z,8.27
2023-01-31T11:58:27.595Z,10.10
2023-01-31T12:03:27.562Z,10.88
2023-01-31T12:06:46.967Z,10.35
2023-01-31T12:09:23.549Z,9.68
2023-01-31T12:11:53.636Z,9.85
2023-01-31T12:14:21.162Z,9.05
2023-01-31T12:16:50.268Z,12.13
2023-01-31T12:19:26.047Z,9.98
2023-01-31T12:21:58.960Z,11.88
2023-01-31T12:27:27.860Z,7.22
2023-01-31T12:30:18.071Z,11.90
2023-01-31T12:33:09.099Z,8.60
2023-01-31T12:36:15.973Z,8.63
2023-01-31T12:38:48.568Z,12.70
2023-01-31T12:41:21.930Z,9.95
2023-01-31T12:43:58.176Z,11.32
2023-01-31T12:46:28.506Z,17.02
2023-01-31T12:49:27.640Z,10.75
2023-01-31T12:52:48.438Z,12.30
2023-01-31T12:55:27.349Z,11.90
2023-01-31T12:58:26.231Z,8.65
2023-01-31T13:01:07.898Z,10.02
2023-01-31T13:03:52.744Z,11.93
2023-01-31T13:06:27.914Z,12.30
2023-01-31T13:09:09.465Z,10.70
2023-01-31T13:11:56.766Z,12.40
2023-01-31T13:14:27.923Z,8.75
2023-01-31T13:17:00.151Z,9.73
2023-01-31T13:19:52.673Z,11.63
2023-01-31T13:22:25.955Z,10.95
2023-01-31T13:25:06.681Z,14.75
2023-01-31T13:27:39.260Z,12.77
2023-01-31T13:30:20.113Z,18.67
2023-01-31T13:32:50.330Z,12.70
2023-01-31T13:35:26.493Z,8.80
2023-01-31T13:38:00.001Z,13.40
2023-01-31T13:40:33.010Z,10.85
2023-01-31T13:45:38.932Z,13.45
2023-01-31T13:48:16.460Z,12.50
2023-01-31T13:50:51.476Z,10.93
2023-01-31T13:53:28.195Z,15.68
2023-01-31T13:55:55.647Z,19.65
2023-01-31T13:58:29.943Z,18.65
2023-01-31T14:00:59.441Z,16.40
2023-01-31T14:03:26.900Z,13.13
2023-01-31T14:05:56.110Z,12.25
2023-01-31T14:08:38.752Z,13.05
2023-01-31T14:11:14.829Z,13.10
2023-01-31T14:13:47.182Z,7.93
2023-01-31T14:16:52.843Z,14.05
2023-01-31T14:19:20.268Z,9.68
2023-01-31T14:22:02.524Z,15.30
2023-01-31T14:24:47.561Z,11.33
2023-01-31T14:27:29.515Z,25.35
2023-01-31T14:30:06.040Z,12.02
2023-01-31T14:32:46.841Z,13.95
2023-01-31T14:35:13.901Z,12.02
2023-01-31T14:37:46.990Z,15.25
2023-01-31T14:43:35.077Z,10.40
2023-01-31T14:46:29.741Z,16.38
2023-01-31T14:49:23.114Z,10.63
2023-01-31T14:51:50.243Z,14.90
2023-01-31T14:54:20.572Z,14.85
2023-01-31T14:57:25.009Z,11.10
2023-01-31T15:00:05.924Z,13.30
2023-01-31T15:02:33.774Z,12.52
2023-01-31T15:05:02.115Z,13.63
2023-01-31T15:07:31.134Z,13.18
2023-01-31T15:09:58.952Z,16.55
2023-01-31T15:13:00.766Z,12.45
2023-01-31T15:15:39.990Z,17.40
2023-01-31T15:18:26.552Z,13.18
2023-01-31T15:20:59.113Z,10.70
2023-01-31T15:23:29.596Z,12.32
2023-01-31T15:25:58.900Z,17.45
2023-01-31T15:28:30.256Z,16.10
2023-01-31T15:31:01.117Z,19.02
2023-01-31T15:33:43.780Z,14.45
2023-01-31T15:36:39.064Z,17.02
2023-01-31T15:39:30.681Z,11.77
2023-01-31T15:41:57.823Z,15.10
2023-01-31T15:44:29.569Z,18.45
2023-01-31T15:47:03.681Z,13.15
2023-01-31T15:49:41.158Z,11.15
2023-01-31T15:52:08.226Z,13.93
2023-01-31T15:54:35.705Z,14.85
2023-01-31T15:57:04.025Z,15.25
2023-01-31T15:59:33.840Z,10.73
2023-01-31T16:02:02.253Z,17.20
2023-01-31T16:04:30.176Z,12.90
2023-01-31T16:06:58.989Z,21.52
2023-01-31T16:09:34.959Z,32.17
2023-01-31T16:12:02.853Z,16.58
2023-01-31T16:14:30.836Z,13.82
2023-01-31T16:16:59.391Z,12.50
2023-01-31T16:19:32.978Z,15.52
2023-01-31T16:22:00.602Z,15.77
2023-01-31T16:24:27.853Z,15.70
2023-01-31T16:27:13.972Z,16.85
2023-01-31T16:29:50.741Z,17.98
2023-01-31T16:32:27.645Z,17.50
2023-01-31T16:35:07.188Z,17.30
2023-01-31T16:37:41.734Z,18.27
2023-01-31T16:40:09.261Z,19.17
2023-01-31T16:42:38.922Z,18.13
2023-01-31T16:45:30.491Z,18.42
2023-01-31T16:48:24.996Z,17.02
2023-01-31T16:50:54.165Z,19.02
2023-01-31T16:53:28.781Z,18.08
2023-01-31T16:56:14.312Z,15.77
2023-01-31T16:58:58.432Z,18.83
2023-01-31T17:01:35.000Z,18.25
2023-01-31T17:04:14.076Z,16.77
2023-01-31T17:06:42.973Z,18.25
2023-01-31T17:09:16.266Z,19.35
2023-01-31T17:14:30.154Z,13.25
2023-01-31T17:16:57.303Z,17.27
2023-01-31T17:19:24.569Z,16.65
2023-01-31T17:21:52.209Z,16.60
2023-01-31T17:24:22.716Z,18.88
2023-01-31T17:26:52.012Z,15.77
2023-01-31T17:29:20.774Z,18.23
2023-01-31T17:31:47.953Z,21.45
2023-01-31T17:34:16.496Z,19.02
2023-01-31T17:36:46.674Z,9.55
2023-01-31T17:39:13.725Z,16.35
2023-01-31T17:41:41.591Z,12.55
2023-01-31T17:44:13.133Z,10.02
2023-01-31T17:46:40.500Z,17.67
2023-01-31T17:49:07.603Z,13.77
2023-01-31T17:51:34.705Z,13.82
2023-01-31T17:54:01.819Z,14.20
2023-01-31T17:56:29.043Z,15.77
2023-01-31T17:58:56.444Z,16.90
2023-01-31T18:01:23.802Z,18.35
2023-01-31T18:03:51.417Z,17.80
2023-01-31T18:06:18.946Z,17.77
2023-01-31T18:08:46.195Z,15.00
2023-01-31T18:11:15.457Z,19.02
2023-01-31T18:13:43.468Z,16.58
2023-01-31T18:16:18.250Z,16.45
2023-01-31T18:18:45.540Z,12.82
2023-01-31T18:21:15.547Z,28.50
2023-01-31T18:23:42.854Z,18.50
2023-01-31T18:26:11.683Z,11.82
2023-01-31T18:28:38.784Z,16.67
2023-01-31T18:31:10.808Z,12.45
2023-01-31T18:33:38.265Z,13.55
2023-01-31T18:36:06.135Z,13.48
2023-01-31T18:38:33.666Z,13.65
2023-01-31T18:41:01.342Z,13.80
2023-01-31T18:43:30.072Z,18.25
2023-01-31T18:45:57.122Z,17.25
2023-01-31T18:48:24.683Z,27.30
2023-01-31T18:50:51.804Z,12.85
2023-01-31T18:53:18.849Z,10.55
2023-01-31T18:55:46.206Z,17.15
2023-01-31T18:58:13.420Z,13.07
2023-01-31T19:00:40.931Z,19.17
2023-01-31T19:03:08.017Z,15.48
2023-01-31T19:05:37.499Z,18.10
2023-01-31T19:08:04.887Z,14.63
2023-01-31T19:10:32.968Z,14.90
2023-01-31T19:13:00.037Z,14.55
2023-01-31T19:15:27.148Z,15.65
2023-01-31T19:17:54.510Z,16.17
2023-01-31T19:20:21.558Z,16.17
2023-01-31T19:22:48.741Z,16.40
2023-01-31T19:25:15.913Z,14.77
2023-01-31T19:27:42.924Z,16.05
2023-01-31T19:30:10.817Z,15.48
2023-01-31T19:32:37.992Z,18.38
2023-01-31T19:35:05.602Z,15.88
2023-01-31T19:37:32.740Z,16.38
2023-01-31T19:40:00.183Z,15.95
2023-01-31T19:42:28.209Z,11.80
2023-01-31T19:44:55.335Z,15.35
2023-01-31T19:47:25.077Z,9.48
2023-01-31T19:49:52.447Z,13.35
2023-01-31T19:52:19.496Z,14.70
2023-01-31T19:54:46.567Z,15.43
2023-01-31T19:57:13.675Z,14.90
2023-01-31T19:59:41.329Z,17.30
2023-01-31T20:02:11.988Z,16.02
2023-01-31T20:04:39.213Z,15.95
2023-01-31T20:07:06.351Z,17.02
2023-01-31T20:09:33.763Z,14.40
2023-01-31T20:12:00.809Z,20.50
2023-01-31T20:14:29.630Z,13.60
2023-01-31T20:16:56.715Z,12.55
2023-01-31T20:19:23.915Z,14.98
2023-01-31T20:21:51.214Z,15.25
2023-01-31T20:24:18.409Z,17.80
2023-01-31T20:26:45.474Z,14.38
2023-01-31T20:29:12.551Z,16.35
2023-01-31T20:31:39.632Z,17.90
2023-01-31T20:34:07.197Z,16.48
2023-01-31T20:36:34.240Z,8.30
2023-01-31T20:39:01.318Z,16.88
2023-01-31T20:41:29.783Z,15.05
2023-01-31T20:43:57.962Z,17.30
2023-01-31T20:46:25.070Z,17.30
2023-01-31T20:48:53.002Z,20.75
2023-01-31T20:51:20.057Z,14.80
2023-01-31T20:53:47.445Z,14.32
2023-01-31T20:56:14.705Z,16.13
2023-01-31T20:58:43.257Z,11.48
2023-01-31T21:01:11.733Z,16.13
2023-01-31T21:03:39.028Z,11.75
2023-01-31T21:06:07.228Z,16.10
2023-01-31T21:08:35.760Z,12.32
2023-01-31T21:11:07.378Z,14.05
2023-01-31T21:13:35.245Z,19.05
2023-01-31T21:16:05.042Z,18.48
2023-01-31T21:18:35.804Z,10.25
2023-01-31T21:21:09.228Z,12.52
2023-01-31T21:23:37.968Z,26.45
2023-01-31T21:26:07.581Z,17.65
2023-01-31T21:28:37.681Z,13.02
2023-01-31T21:31:08.844Z,16.58
2023-01-31T21:33:36.549Z,16.80
2023-01-31T21:36:08.795Z,17.58
2023-01-31T21:38:36.462Z,15.90
2023-01-31T21:41:22.329Z,14.13
2023-01-31T21:43:49.576Z,13.45
2023-01-31T21:46:19.719Z,17.77
2023-01-31T21:48:46.969Z,14.70
2023-01-31T21:51:16.147Z,17.42
2023-01-31T21:53:43.875Z,18.50
2023-01-31T21:56:20.118Z,18.90
2023-01-31T21:58:49.430Z,17.33
2023-01-31T22:01:20.374Z,18.27
2023-01-31T22:03:49.917Z,19.20
2023-01-31T22:06:19.563Z,15.32
2023-01-31T22:08:54.387Z,16.63
2023-01-31T22:11:22.350Z,18.23
2023-01-31T22:13:53.144Z,15.82
2023-01-31T22:16:22.473Z,21.45
2023-01-31T22:18:49.629Z,18.50
2023-01-31T22:21:29.443Z,18.98
2023-01-31T22:23:59.422Z,20.60
2023-01-31T22:26:29.091Z,20.38
2023-01-31T22:29:01.098Z,23.75
2023-01-31T22:31:29.516Z,22.33
2023-01-31T22:33:59.248Z,20.40
2023-01-31T22:36:26.980Z,19.65
2023-01-31T22:38:54.790Z,18.02
2023-01-31T22:41:22.413Z,20.27
2023-01-31T22:43:51.872Z,22.65
2023-01-31T22:46:24.447Z,21.60
2023-01-31T22:48:55.118Z,15.82
2023-01-31T22:51:24.386Z,23.30
2023-01-31T22:53:52.027Z,24.23
2023-01-31T22:56:21.817Z,25.23
2023-01-31T22:58:49.386Z,21.65
2023-01-31T23:01:21.954Z,19.65
2023-01-31T23:03:49.719Z,21.10
2023-01-31T23:06:19.022Z,19.08
2023-01-31T23:08:46.602Z,18.98
2023-01-31T23:11:16.262Z,22.73
2023-01-31T23:13:43.965Z,18.67
2023-01-31T23:16:42.618Z,21.90
2023-01-31T23:19:10.345Z,20.65
2023-01-31T23:21:42.698Z,18.08
2023-01-31T23:24:11.257Z,19.52
2023-01-31T23:26:38.777Z,18.70
2023-01-31T23:29:06.067Z,14.45
2023-01-31T23:31:35.567Z,21.77
2023-01-31T23:34:02.668Z,21.58
2023-01-31T23:36:29.694Z,21.98
2023-01-31T23:38:59.057Z,21.42
2023-01-31T23:41:26.252Z,24.65
2023-01-31T23:43:53.302Z,19.70
2023-01-31T23:46:20.429Z,21.63
2023-01-31T23:48:47.533Z,13.82
2023-01-31T23:51:17.111Z,22.65
2023-01-31T23:53:46.605Z,24.33
2023-01-31T23:56:13.660Z,20.13
2023-01-31T23:58:43.266Z,25.05
